Time;durP1;ratioP1;P1;durP2;ratioP2;P2;SDS_P1;SDS_P2;PMS_P1;PMS_P2;Temp;Humidity;BMP_temperature;BMP_pressure;BME280_temperature;BME280_humidity;BME280_pressure;Samples;Min_cycle;Max_cycle;Signal;HPM_P1;HPM_P2
2023/03/26 00:01:15;;;;;;;22.20;4.73;;;9.10;99.90;;;;;;5096372;28;20315;-60
2023/03/26 00:03:45;;;;;;;21.97;4.97;;;9.10;99.90;;;;;;5097541;27;20288;-60
2023/03/26 00:06:15;;;;;;;19.40;4.47;;;9.20;99.90;;;;;;5096175;28;20194;-59
2023/03/26 00:08:44;;;;;;;17.60;4.13;;;9.10;99.90;;;;;;5097993;28;20258;-60
2023/03/26 00:11:14;;;;;;;24.47;4.70;;;9.00;99.90;;;;;;5075044;28;20205;-60
2023/03/26 00:13:45;;;;;;;22.77;5.23;;;9.10;99.90;;;;;;5098834;28;20285;-59
2023/03/26 00:16:14;;;;;;;26.27;5.30;;;9.00;99.90;;;;;;5098692;28;20653;-59
2023/03/26 00:18:42;;;;;;;20.07;5.33;;;9.00;99.90;;;;;;5097432;28;20288;-59
2023/03/26 00:21:15;;;;;;;26.83;5.07;;;9.00;99.90;;;;;;5096043;28;20236;-59
2023/03/26 00:23:43;;;;;;;23.47;4.30;;;9.00;99.90;;;;;;5099904;28;20249;-60
2023/03/26 00:26:10;;;;;;;24.90;5.03;;;9.00;99.90;;;;;;5100526;28;20291;-61
2023/03/26 00:28:41;;;;;;;20.17;4.43;;;8.90;99.90;;;;;;5101423;28;20237;-63
2023/03/26 00:31:14;;;;;;;18.43;3.57;;;8.90;99.90;;;;;;5096729;28;20679;-61
2023/03/26 00:33:41;;;;;;;31.40;4.87;;;8.80;99.90;;;;;;5101235;28;20202;-61
2023/03/26 00:36:13;;;;;;;22.90;5.07;;;8.80;99.90;;;;;;5099717;28;20555;-61
2023/03/26 00:38:41;;;;;;;24.90;4.70;;;8.80;99.90;;;;;;5100741;28;20217;-61
2023/03/26 00:41:16;;;;;;;19.93;4.37;;;8.90;99.90;;;;;;5080864;28;20285;-61
2023/03/26 00:43:47;;;;;;;26.03;5.13;;;8.90;99.90;;;;;;5100303;28;20662;-59
2023/03/26 00:46:16;;;;;;;21.87;4.47;;;8.90;99.90;;;;;;5097088;28;20226;-59
2023/03/26 00:48:45;;;;;;;19.80;4.30;;;8.80;99.90;;;;;;5098418;28;20216;-60
2023/03/26 00:51:14;;;;;;;18.97;4.17;;;8.70;99.90;;;;;;5097225;28;20233;-59
2023/03/26 00:53:44;;;;;;;23.50;4.30;;;8.70;99.90;;;;;;5096543;28;20205;-61
2023/03/26 00:56:11;;;;;;;18.93;4.73;;;8.70;99.90;;;;;;5097529;28;20206;-60
2023/03/26 00:58:38;;;;;;;26.93;4.80;;;8.70;99.90;;;;;;5098123;28;20218;-59
2023/03/26 01:01:12;;;;;;;20.00;4.57;;;8.70;99.90;;;;;;5098016;28;20230;-59
2023/03/26 01:03:41;;;;;;;19.27;4.37;;;8.60;99.90;;;;;;5078622;28;20288;-60
2023/03/26 01:06:26;;;;;;;16.70;4.40;;;8.50;99.90;;;;;;5096748;28;20952;-61
2023/03/26 01:08:58;;;;;;;20.57;4.57;;;8.50;99.90;;;;;;5100321;28;20669;-62
2023/03/26 01:11:30;;;;;;;24.03;5.17;;;8.70;99.90;;;;;;5100911;28;20207;-62
2023/03/26 01:13:57;;;;;;;24.60;4.87;;;8.50;99.90;;;;;;5099352;28;20233;-62
2023/03/26 01:16:35;;;;;;;16.33;4.17;;;8.60;99.90;;;;;;5094069;28;20294;-61
2023/03/26 01:19:16;;;;;;;17.80;4.00;;;8.80;99.90;;;;;;5094920;28;20229;-59
2023/03/26 01:21:46;;;;;;;24.43;4.33;;;8.90;99.90;;;;;;5097436;28;20264;-61
2023/03/26 01:24:13;;;;;;;20.10;4.80;;;8.90;99.90;;;;;;5096348;28;20672;-59
2023/03/26 01:27:03;;;;;;;17.97;4.03;;;9.00;99.90;;;;;;5096209;28;20211;-60
2023/03/26 01:29:36;;;;;;;22.70;4.20;;;8.90;99.90;;;;;;5098669;28;20214;-60
2023/03/26 01:32:34;;;;;;;20.90;4.00;;;8.80;99.90;;;;;;5097143;28;20333;-61
2023/03/26 01:35:11;;;;;;;21.07;4.43;;;8.80;99.90;;;;;;5096234;28;20194;-59
2023/03/26 01:38:09;;;;;;;20.83;3.53;;;8.70;99.90;;;;;;5080141;28;20216;-60
2023/03/26 01:40:48;;;;;;;18.97;4.67;;;8.60;99.90;;;;;;5098370;28;20630;-59
2023/03/26 01:43:42;;;;;;;17.93;4.17;;;8.50;99.90;;;;;;5098642;28;20205;-59
2023/03/26 01:46:11;;;;;;;20.00;4.00;;;8.50;99.90;;;;;;5098478;28;20233;-61
2023/03/26 01:48:41;;;;;;;26.73;4.70;;;8.50;99.90;;;;;;5097934;28;20206;-59
2023/03/26 01:51:10;;;;;;;23.00;5.00;;;8.40;99.90;;;;;;5097378;28;20236;-60
2023/03/26 01:53:42;;;;;;;19.70;4.77;;;8.40;99.90;;;;;;5097649;28;20200;-59
2023/03/26 01:56:46;;;;;;;23.57;4.10;;;8.30;99.90;;;;;;5097555;28;20275;-59
2023/03/26 01:59:37;;;;;;;13.63;3.80;;;8.30;99.90;;;;;;5096931;28;20291;-64
2023/03/26 02:02:09;;;;;;;20.57;4.10;;;8.30;99.90;;;;;;5101129;27;20307;-59
2023/03/26 02:04:43;;;;;;;20.97;4.23;;;8.30;99.90;;;;;;5097624;28;20203;-59
2023/03/26 02:07:42;;;;;;;19.77;4.27;;;8.20;99.90;;;;;;5096928;28;20279;-59
2023/03/26 02:10:12;;;;;;;15.60;3.57;;;8.30;99.90;;;;;;5087993;28;20320;-60
2023/03/26 02:12:40;;;;;;;23.77;4.03;;;8.20;99.90;;;;;;5095634;28;20196;-59
2023/03/26 02:15:08;;;;;;;22.77;4.13;;;8.10;99.90;;;;;;5096017;28;20198;-59
2023/03/26 02:17:35;;;;;;;23.40;4.17;;;8.10;99.90;;;;;;5098573;28;20308;-61
2023/03/26 02:20:05;;;;;;;21.33;4.30;;;8.00;99.90;;;;;;5097402;28;20598;-60
2023/03/26 02:22:32;;;;;;;19.50;3.93;;;8.00;99.90;;;;;;5097894;28;20200;-60
2023/03/26 02:24:58;;;;;;;19.83;4.10;;;8.00;99.90;;;;;;5095198;28;20204;-60
2023/03/26 02:27:25;;;;;;;20.17;4.30;;;7.90;99.90;;;;;;5096632;28;20287;-60
2023/03/26 02:29:52;;;;;;;16.70;3.80;;;8.00;99.90;;;;;;5097553;28;20235;-60
2023/03/26 02:32:19;;;;;;;17.67;3.50;;;7.90;99.90;;;;;;5080846;28;20272;-65
2023/03/26 02:34:46;;;;;;;16.23;3.77;;;7.90;99.90;;;;;;5096058;28;20702;-60
2023/03/26 02:37:13;;;;;;;19.40;3.67;;;7.80;99.90;;;;;;5078958;28;20661;-60
2023/03/26 02:39:40;;;;;;;20.70;4.20;;;7.90;99.90;;;;;;5096965;28;20248;-60
2023/03/26 02:42:07;;;;;;;25.07;3.83;;;7.80;99.90;;;;;;5097763;28;20199;-60
2023/03/26 02:44:34;;;;;;;23.60;3.83;;;7.80;99.90;;;;;;5097174;28;21496;-60
2023/03/26 02:47:01;;;;;;;21.40;3.53;;;7.70;99.90;;;;;;5097300;28;20220;-60
2023/03/26 02:49:27;;;;;;;20.70;3.70;;;7.70;99.90;;;;;;5097708;28;20290;-60
2023/03/26 02:51:55;;;;;;;20.63;3.43;;;7.70;99.90;;;;;;5076827;28;20306;-62
2023/03/26 02:54:22;;;;;;;24.37;3.80;;;7.70;99.90;;;;;;5095198;28;20202;-62
2023/03/26 02:56:49;;;;;;;21.73;3.20;;;7.70;99.90;;;;;;5096764;28;20304;-61
2023/03/26 02:59:16;;;;;;;12.53;2.97;;;7.70;99.90;;;;;;5098396;28;20212;-60
2023/03/26 03:01:43;;;;;;;19.60;3.77;;;7.80;99.90;;;;;;5097662;28;20655;-63
2023/03/26 03:04:10;;;;;;;17.47;3.77;;;7.80;99.90;;;;;;5095898;28;20224;-60
2023/03/26 03:06:37;;;;;;;22.87;3.67;;;7.80;99.90;;;;;;5096168;28;20292;-60
2023/03/26 03:09:07;;;;;;;18.63;3.17;;;7.90;99.90;;;;;;5097308;28;20210;-65
2023/03/26 03:11:35;;;;;;;19.50;3.73;;;7.80;99.90;;;;;;5093665;28;20290;-60
2023/03/26 03:14:02;;;;;;;14.00;3.10;;;7.90;99.90;;;;;;5096193;28;20199;-60
2023/03/26 03:16:30;;;;;;;17.27;3.00;;;7.80;99.90;;;;;;5095577;28;20204;-60
2023/03/26 03:18:57;;;;;;;17.97;2.97;;;7.90;99.90;;;;;;5098676;28;20232;-60
2023/03/26 03:21:26;;;;;;;14.63;3.53;;;7.90;99.90;;;;;;5100160;28;20230;-61
2023/03/26 03:23:54;;;;;;;14.77;3.13;;;7.90;99.90;;;;;;5101484;28;20281;-61
2023/03/26 03:26:28;;;;;;;14.80;2.57;;;7.90;99.90;;;;;;5081471;28;20202;-61
2023/03/26 03:28:56;;;;;;;15.03;3.40;;;8.00;99.90;;;;;;5100103;28;20600;-61
2023/03/26 03:31:25;;;;;;;22.37;3.40;;;8.10;99.90;;;;;;5099914;28;20197;-61
2023/03/26 03:33:52;;;;;;;17.13;3.13;;;8.00;99.90;;;;;;5099869;28;20301;-60
2023/03/26 03:36:22;;;;;;;19.37;2.80;;;8.10;99.90;;;;;;5097307;28;20207;-60
2023/03/26 03:38:50;;;;;;;14.80;3.00;;;8.10;99.90;;;;;;5100418;28;20217;-61
2023/03/26 03:41:17;;;;;;;12.07;2.90;;;8.00;99.90;;;;;;5098620;28;20197;-60
2023/03/26 03:43:44;;;;;;;14.63;3.60;;;8.20;99.90;;;;;;5099324;28;20225;-60
2023/03/26 03:46:11;;;;;;;15.90;2.70;;;8.10;99.90;;;;;;5101133;28;20618;-62
2023/03/26 03:48:39;;;;;;;13.83;2.97;;;8.10;99.90;;;;;;5101389;28;20201;-60
2023/03/26 03:51:06;;;;;;;18.20;3.23;;;8.00;99.90;;;;;;5100458;28;20820;-61
2023/03/26 03:53:35;;;;;;;15.13;3.13;;;7.90;99.90;;;;;;5101284;28;20735;-61
2023/03/26 03:56:08;;;;;;;16.13;3.27;;;8.00;99.90;;;;;;5100866;28;20225;-60
2023/03/26 03:58:36;;;;;;;13.80;3.10;;;8.00;99.90;;;;;;5098228;28;20199;-64
2023/03/26 04:01:03;;;;;;;12.77;2.50;;;8.00;99.90;;;;;;5100975;28;20662;-60
2023/03/26 04:03:30;;;;;;;12.13;2.77;;;8.10;99.90;;;;;;5099028;28;20286;-61
2023/03/26 04:06:00;;;;;;;17.93;3.03;;;8.20;99.90;;;;;;5101077;28;20194;-61
2023/03/26 04:08:27;;;;;;;12.50;2.93;;;8.20;99.90;;;;;;5100943;28;20247;-61
2023/03/26 04:10:54;;;;;;;16.00;2.93;;;8.20;99.90;;;;;;5101562;28;20202;-60
2023/03/26 04:13:21;;;;;;;15.63;2.97;;;8.40;99.90;;;;;;5099666;28;20208;-61
2023/03/26 04:15:48;;;;;;;19.07;2.53;;;8.50;99.90;;;;;;5100116;28;20197;-61
2023/03/26 04:18:14;;;;;;;12.30;2.20;;;8.60;99.90;;;;;;5098376;28;20227;-61
2023/03/26 04:20:46;;;;;;;10.37;2.30;;;8.60;99.90;;;;;;5100549;28;20536;-60
2023/03/26 04:23:17;;;;;;;9.93;2.67;;;8.60;99.90;;;;;;5098928;28;20202;-60
2023/03/26 04:25:48;;;;;;;17.47;3.13;;;8.50;99.90;;;;;;5100264;28;20668;-61
2023/03/26 04:28:41;;;;;;;12.50;2.63;;;8.60;99.90;;;;;;5100315;28;20295;-60
2023/03/26 04:31:12;;;;;;;13.90;2.90;;;8.70;99.90;;;;;;5098378;28;20201;-60
2023/03/26 04:33:45;;;;;;;12.50;3.07;;;8.70;99.90;;;;;;5100183;28;20234;-60
2023/03/26 04:36:14;;;;;;;17.80;2.43;;;8.70;99.90;;;;;;5096447;28;20266;-60
2023/03/26 04:38:44;;;;;;;14.83;3.03;;;8.70;99.90;;;;;;5098531;28;20210;-61
2023/03/26 04:41:12;;;;;;;16.00;2.60;;;8.80;99.90;;;;;;5097047;28;20209;-61
2023/03/26 04:43:46;;;;;;;16.33;2.37;;;8.80;99.90;;;;;;5099945;28;20597;-60
2023/03/26 04:46:13;;;;;;;12.50;2.77;;;8.70;99.90;;;;;;5097784;28;20631;-61
2023/03/26 04:48:40;;;;;;;10.53;3.73;;;8.60;99.90;;;;;;5097721;28;20201;-60
2023/03/26 04:51:08;;;;;;;12.80;2.40;;;8.70;99.90;;;;;;5097660;28;20714;-60
2023/03/26 04:53:37;;;;;;;10.90;2.73;;;8.80;99.90;;;;;;5097670;28;20609;-61
2023/03/26 04:56:26;;;;;;;11.07;2.63;;;8.70;99.90;;;;;;5097653;28;20798;-63
2023/03/26 04:58:58;;;;;;;10.80;2.53;;;8.80;99.90;;;;;;5082532;28;20221;-61
2023/03/26 05:01:29;;;;;;;14.03;2.50;;;8.80;99.90;;;;;;5098267;28;20207;-61
2023/03/26 05:04:00;;;;;;;9.30;2.27;;;8.80;99.90;;;;;;5098546;28;20297;-60
2023/03/26 05:06:27;;;;;;;15.37;2.63;;;8.80;99.90;;;;;;5097709;28;20216;-61
2023/03/26 05:08:54;;;;;;;13.17;2.53;;;8.70;99.90;;;;;;5096567;28;20197;-62
2023/03/26 05:11:21;;;;;;;11.77;2.83;;;8.80;99.90;;;;;;5097869;28;20262;-64
2023/03/26 05:13:48;;;;;;;11.13;2.30;;;8.80;99.90;;;;;;5096925;28;20213;-60
2023/03/26 05:16:14;;;;;;;9.73;2.50;;;8.80;99.90;;;;;;5096978;28;20239;-60
2023/03/26 05:18:41;;;;;;;10.50;2.30;;;8.80;99.90;;;;;;5096188;28;20313;-61
2023/03/26 05:21:09;;;;;;;10.93;2.07;;;8.80;99.90;;;;;;5098727;28;20330;-60
2023/03/26 05:23:36;;;;;;;7.67;1.67;;;8.80;99.90;;;;;;5095644;28;20238;-64
2023/03/26 05:26:03;;;;;;;11.17;2.33;;;8.80;99.90;;;;;;5096986;28;20204;-61
2023/03/26 05:28:30;;;;;;;6.67;2.47;;;8.80;99.90;;;;;;5094000;28;20200;-61
2023/03/26 05:30:57;;;;;;;12.93;2.33;;;8.80;99.90;;;;;;5096888;28;20246;-60
2023/03/26 05:33:24;;;;;;;12.97;2.80;;;8.80;99.90;;;;;;5080099;28;20220;-61
2023/03/26 05:36:11;;;;;;;9.83;3.23;;;8.80;99.90;;;;;;5076502;28;20206;-60
2023/03/26 05:38:39;;;;;;;12.93;3.80;;;8.80;99.90;;;;;;5095602;28;20217;-62
2023/03/26 05:41:08;;;;;;;17.20;3.40;;;8.80;99.90;;;;;;5098009;28;20799;-61
2023/03/26 05:43:35;;;;;;;9.37;2.67;;;8.80;99.90;;;;;;5097099;28;20197;-60
2023/03/26 05:46:02;;;;;;;13.20;2.57;;;8.80;99.90;;;;;;5097272;28;20243;-61
2023/03/26 05:48:29;;;;;;;12.27;2.57;;;8.70;99.90;;;;;;5073974;28;20217;-60
2023/03/26 05:50:57;;;;;;;13.30;2.80;;;8.70;99.90;;;;;;5079721;28;20239;-61
2023/03/26 05:53:25;;;;;;;14.83;2.80;;;8.70;99.90;;;;;;5094049;27;20261;-61
2023/03/26 05:55:56;;;;;;;12.67;2.97;;;8.60;99.90;;;;;;5095179;27;20322;-60
2023/03/26 05:58:28;;;;;;;16.80;2.47;;;8.60;99.90;;;;;;5094604;28;20579;-60
2023/03/26 06:01:07;;;;;;;14.33;2.73;;;8.70;99.90;;;;;;5086309;28;21112;-60
2023/03/26 06:03:38;;;;;;;15.13;2.97;;;8.70;99.90;;;;;;5072143;28;21887;-60
2023/03/26 06:06:14;;;;;;;12.57;2.70;;;8.70;99.90;;;;;;5093954;28;20226;-61
2023/03/26 06:08:49;;;;;;;16.30;2.63;;;8.80;99.90;;;;;;5095395;28;20202;-60
2023/03/26 06:11:28;;;;;;;20.87;2.90;;;8.70;99.90;;;;;;5099628;28;20204;-61
2023/03/26 06:13:55;;;;;;;11.90;2.40;;;8.60;99.90;;;;;;5077718;28;20785;-60
2023/03/26 06:16:22;;;;;;;14.13;2.50;;;8.60;99.90;;;;;;5093540;27;20198;-60
2023/03/26 06:18:54;;;;;;;9.07;2.27;;;8.60;99.90;;;;;;5095896;27;20229;-60
2023/03/26 06:21:24;;;;;;;16.67;2.53;;;8.60;99.90;;;;;;5096954;27;20215;-60
2023/03/26 06:23:51;;;;;;;8.30;2.73;;;8.70;99.90;;;;;;5098952;28;20207;-60
2023/03/26 06:26:18;;;;;;;11.77;2.53;;;8.70;99.90;;;;;;5097524;27;20226;-60
2023/03/26 06:28:45;;;;;;;11.73;2.77;;;8.80;99.90;;;;;;5079376;28;20222;-61
2023/03/26 06:31:12;;;;;;;10.43;2.50;;;8.80;99.90;;;;;;5098191;27;20298;-60
2023/03/26 06:33:39;;;;;;;11.43;2.70;;;8.70;99.90;;;;;;5096510;27;20201;-60
2023/03/26 06:36:06;;;;;;;13.33;2.97;;;8.70;99.90;;;;;;5094578;28;20293;-61
2023/03/26 06:38:33;;;;;;;16.60;2.73;;;8.70;99.90;;;;;;5098317;27;20208;-60
2023/03/26 06:41:05;;;;;;;8.73;2.40;;;8.60;99.90;;;;;;5093318;28;21080;-61
2023/03/26 06:43:32;;;;;;;8.80;3.23;;;8.60;99.90;;;;;;5081843;28;20668;-61
2023/03/26 06:46:00;;;;;;;15.77;2.60;;;8.50;99.90;;;;;;5097505;28;20201;-61
2023/03/26 06:48:27;;;;;;;11.33;2.63;;;8.50;99.90;;;;;;5096984;28;20652;-60
2023/03/26 06:50:54;;;;;;;14.77;2.70;;;8.60;99.90;;;;;;5096822;28;20269;-60
2023/03/26 06:53:21;;;;;;;14.73;2.80;;;8.60;99.90;;;;;;5095300;28;20613;-60
2023/03/26 06:55:48;;;;;;;12.17;2.50;;;8.70;99.90;;;;;;5078912;28;20201;-61
2023/03/26 06:58:15;;;;;;;17.30;3.10;;;8.60;99.90;;;;;;5076028;28;20208;-60
2023/03/26 07:00:42;;;;;;;12.57;2.60;;;8.70;99.90;;;;;;5093949;28;20621;-61
2023/03/26 07:03:10;;;;;;;9.17;2.67;;;8.60;99.90;;;;;;5096521;28;20587;-61
2023/03/26 07:05:39;;;;;;;8.77;2.43;;;8.60;99.90;;;;;;5092549;28;20264;-60
2023/03/26 07:08:06;;;;;;;8.60;2.50;;;8.60;99.90;;;;;;5093532;28;20239;-60
2023/03/26 07:10:33;;;;;;;10.60;2.50;;;8.50;99.90;;;;;;5095445;28;20234;-61
2023/03/26 07:12:59;;;;;;;10.37;2.80;;;8.50;99.90;;;;;;5096833;28;20216;-60
2023/03/26 07:15:27;;;;;;;9.53;2.13;;;8.60;99.90;;;;;;5094221;28;20267;-61
2023/03/26 07:17:55;;;;;;;4.63;2.17;;;8.60;99.90;;;;;;5093496;28;20237;-60
2023/03/26 07:20:22;;;;;;;12.57;2.37;;;8.50;99.90;;;;;;5094871;28;20221;-61
2023/03/26 07:22:50;;;;;;;13.00;2.43;;;8.40;99.90;;;;;;5092670;28;20197;-60
2023/03/26 07:25:18;;;;;;;12.30;2.37;;;8.40;99.90;;;;;;5077434;28;20606;-61
2023/03/26 07:28:43;;;;;;;8.20;2.30;;;8.50;99.90;;;;;;5077007;28;20565;-62
2023/03/26 07:31:51;;;;;;;15.03;2.77;;;8.40;99.90;;;;;;5102167;28;20214;-59
2023/03/26 07:34:37;;;;;;;6.87;2.47;;;8.60;99.90;;;;;;5095322;28;21042;-62
2023/03/26 07:37:23;;;;;;;9.87;2.00;;;8.70;99.90;;;;;;5094059;28;20213;-60
2023/03/26 07:39:59;;;;;;;5.53;2.63;;;8.60;99.90;;;;;;5095237;28;22034;-60
2023/03/26 07:42:56;;;;;;;5.70;2.07;;;8.60;99.90;;;;;;5094052;28;20627;-60
2023/03/26 07:45:49;;;;;;;10.77;2.83;;;8.60;99.90;;;;;;5096358;28;20303;-62
2023/03/26 07:48:26;;;;;;;6.53;2.07;;;8.80;99.90;;;;;;5092271;28;20198;-61
2023/03/26 07:50:54;;;;;;;12.43;2.50;;;8.70;99.90;;;;;;5075226;28;20906;-60
2023/03/26 07:53:22;;;;;;;6.87;2.37;;;8.70;99.90;;;;;;5075529;28;20250;-61
2023/03/26 07:55:56;;;;;;;12.03;2.47;;;8.70;99.90;;;;;;5077344;28;20229;-61
2023/03/26 07:58:51;;;;;;;5.77;2.03;;;8.70;99.90;;;;;;5077018;28;20636;-61
2023/03/26 08:01:42;;;;;;;9.87;2.57;;;8.80;99.90;;;;;;5077495;28;20293;-61
2023/03/26 08:04:09;;;;;;;7.80;1.93;;;8.70;99.90;;;;;;5078676;28;20714;-61
2023/03/26 08:07:02;;;;;;;7.27;2.17;;;8.70;99.90;;;;;;5081968;28;20205;-60
2023/03/26 08:09:44;;;;;;;5.37;1.87;;;8.80;99.90;;;;;;5080411;28;20214;-61
2023/03/26 08:12:45;;;;;;;7.00;2.33;;;8.90;99.90;;;;;;5080942;28;20197;-61
2023/03/26 08:15:32;;;;;;;7.80;2.43;;;8.90;99.90;;;;;;5072047;28;20199;-61
2023/03/26 08:18:10;;;;;;;6.73;2.40;;;8.90;99.90;;;;;;5079233;28;20230;-60
2023/03/26 08:20:43;;;;;;;9.07;3.20;;;8.90;99.90;;;;;;5079478;28;20208;-60
2023/03/26 08:23:54;;;;;;;7.73;2.70;;;8.90;99.90;;;;;;5060015;28;20572;-60
2023/03/26 08:26:47;;;;;;;9.63;2.60;;;8.90;99.90;;;;;;5053436;28;20214;-61
2023/03/26 08:29:41;;;;;;;9.43;2.43;;;8.90;99.90;;;;;;5049773;28;20210;-61
2023/03/26 08:32:13;;;;;;;7.47;3.33;;;8.90;99.90;;;;;;5048261;28;20289;-61
2023/03/26 08:34:40;;;;;;;5.77;2.57;;;8.80;99.90;;;;;;5075767;28;20709;-61
2023/03/26 08:37:08;;;;;;;8.93;2.57;;;8.90;99.90;;;;;;5079766;28;20210;-61
2023/03/26 08:39:40;;;;;;;9.33;2.63;;;8.80;99.90;;;;;;5075249;28;20216;-61
2023/03/26 08:42:48;;;;;;;8.60;3.00;;;8.80;99.90;;;;;;5080108;28;20205;-61
2023/03/26 08:45:24;;;;;;;4.53;2.17;;;8.90;99.90;;;;;;5075826;28;20298;-61
2023/03/26 08:48:30;;;;;;;4.87;2.07;;;8.80;99.90;;;;;;5079706;28;20202;-61
2023/03/26 08:51:12;;;;;;;5.23;2.30;;;8.90;99.90;;;;;;5041482;28;20237;-60
2023/03/26 08:53:57;;;;;;;6.53;2.80;;;8.90;99.90;;;;;;5096428;28;20236;-61
2023/03/26 08:56:43;;;;;;;6.70;2.47;;;8.90;99.90;;;;;;5094086;28;20292;-60
2023/03/26 08:59:26;;;;;;;5.30;2.30;;;8.90;99.90;;;;;;5099729;28;20208;-60
2023/03/26 09:01:56;;;;;;;8.00;2.60;;;8.90;99.90;;;;;;5096322;28;20301;-61
2023/03/26 09:04:28;;;;;;;3.97;2.57;;;8.90;99.90;;;;;;5077041;28;20433;-61
2023/03/26 09:07:35;;;;;;;6.47;2.63;;;8.80;99.90;;;;;;5100858;28;20266;-61
2023/03/26 09:10:39;;;;;;;5.40;2.50;;;8.90;99.90;;;;;;5098088;28;20688;-64
2023/03/26 09:13:36;;;;;;;4.93;2.60;;;9.00;99.90;;;;;;5098014;27;20215;-60
2023/03/26 09:16:27;;;;;;;4.67;2.27;;;9.00;99.90;;;;;;5080397;28;20195;-61
2023/03/26 09:19:21;;;;;;;5.60;2.73;;;9.00;99.90;;;;;;5081913;28;20223;-61
2023/03/26 09:22:35;;;;;;;7.00;3.00;;;9.10;99.90;;;;;;5097119;28;20294;-61
2023/03/26 09:25:43;;;;;;;6.00;2.53;;;9.20;99.90;;;;;;5061910;28;20238;-60
2023/03/26 09:28:46;;;;;;;8.60;2.97;;;9.20;99.90;;;;;;4741361;28;10000805;-61
2023/03/26 09:31:40;;;;;;;7.80;3.03;;;9.10;99.90;;;;;;5080263;28;20276;-60
2023/03/26 09:34:30;;;;;;;8.03;2.87;;;9.20;99.90;;;;;;5093915;28;20243;-60
2023/03/26 09:37:36;;;;;;;6.07;2.87;;;9.20;99.90;;;;;;5086202;28;20213;-64
2023/03/26 09:40:35;;;;;;;8.37;2.60;;;9.30;99.90;;;;;;5066878;28;20221;-61
2023/03/26 09:43:22;;;;;;;11.03;3.33;;;9.30;99.90;;;;;;5077576;28;20289;-61
2023/03/26 09:46:02;;;;;;;7.30;2.77;;;9.20;99.90;;;;;;5076839;28;20213;-61
2023/03/26 09:48:48;;;;;;;6.77;2.80;;;9.30;99.90;;;;;;5087322;28;20197;-61
2023/03/26 09:51:24;;;;;;;7.60;3.00;;;9.40;99.90;;;;;;5092164;28;20612;-61
2023/03/26 09:54:08;;;;;;;5.87;2.80;;;9.30;99.90;;;;;;5095899;28;20201;-61
2023/03/26 09:56:48;;;;;;;5.80;2.80;;;9.30;99.90;;;;;;5097572;28;20244;-61
2023/03/26 09:59:21;;;;;;;5.77;2.30;;;9.40;99.90;;;;;;5094953;28;20235;-61
2023/03/26 10:02:16;;;;;;;8.40;2.80;;;9.40;99.90;;;;;;5097446;28;20670;-62
2023/03/26 10:05:04;;;;;;;5.17;2.10;;;9.40;99.90;;;;;;5094884;28;20248;-62
2023/03/26 10:07:46;;;;;;;6.47;2.30;;;9.40;99.90;;;;;;5082052;28;20198;-60
2023/03/26 10:10:22;;;;;;;7.77;2.30;;;9.40;99.90;;;;;;5097818;28;20229;-60
2023/03/26 10:12:56;;;;;;;6.87;2.50;;;9.50;99.90;;;;;;5080229;28;20286;-61
2023/03/26 10:15:48;;;;;;;7.60;2.23;;;9.40;99.90;;;;;;5093485;27;20199;-64
2023/03/26 10:18:47;;;;;;;4.53;2.03;;;9.60;99.90;;;;;;5095846;28;20298;-60
2023/03/26 10:21:38;;;;;;;4.13;2.00;;;9.50;99.90;;;;;;5097221;28;20271;-60
2023/03/26 10:24:23;;;;;;;9.23;2.00;;;9.70;99.90;;;;;;5095087;27;20200;-61
2023/03/26 10:26:56;;;;;;;4.17;2.03;;;9.70;99.90;;;;;;5092700;28;20206;-65
2023/03/26 10:30:14;;;;;;;3.73;2.00;;;9.70;99.90;;;;;;5096196;28;20595;-60
2023/03/26 10:32:58;;;;;;;7.53;2.70;;;9.80;99.90;;;;;;5093563;28;20763;-60
2023/03/26 10:35:46;;;;;;;6.67;2.37;;;10.00;99.90;;;;;;5097140;28;20206;-64
2023/03/26 10:38:32;;;;;;;7.70;2.73;;;10.00;99.90;;;;;;5091014;27;20651;-61
2023/03/26 10:41:14;;;;;;;4.83;1.73;;;9.90;99.90;;;;;;5094329;28;20300;-61
2023/03/26 10:43:52;;;;;;;4.23;1.73;;;10.00;99.90;;;;;;5096149;28;20650;-60
2023/03/26 10:46:46;;;;;;;4.30;1.90;;;10.00;99.90;;;;;;5096141;28;20206;-60
2023/03/26 10:50:00;;;;;;;2.97;1.90;;;10.00;99.90;;;;;;5093728;28;20193;-60
2023/03/26 10:52:56;;;;;;;4.90;1.67;;;10.00;99.90;;;;;;4981530;28;20322;-61
2023/03/26 10:55:33;;;;;;;4.23;1.93;;;10.00;99.90;;;;;;4954010;28;20275;-60
2023/03/26 10:58:30;;;;;;;2.87;1.50;;;10.00;99.90;;;;;;5065171;28;20229;-60
2023/03/26 11:01:50;;;;;;;3.53;1.50;;;9.90;99.90;;;;;;5086880;28;20279;-60
2023/03/26 11:04:41;;;;;;;2.43;1.53;;;10.00;99.90;;;;;;5072589;28;20192;-60
2023/03/26 11:07:17;;;;;;;3.80;1.33;;;10.10;99.90;;;;;;5087548;28;20270;-61
2023/03/26 11:10:11;;;;;;;3.53;1.40;;;10.00;99.90;;;;;;5091504;28;20610;-60
2023/03/26 11:12:56;;;;;;;2.40;1.37;;;9.80;99.90;;;;;;5080162;28;20298;-60
2023/03/26 11:15:51;;;;;;;2.83;1.17;;;9.80;99.90;;;;;;5087868;28;20623;-61
2023/03/26 11:18:27;;;;;;;3.87;1.87;;;10.00;99.90;;;;;;5082571;28;20214;-60
2023/03/26 11:21:36;;;;;;;3.67;1.40;;;10.10;99.90;;;;;;5088269;28;20220;-63
2023/03/26 11:24:32;;;;;;;2.30;2.10;;;10.00;99.90;;;;;;5065851;28;20210;-60
2023/03/26 11:27:41;;;;;;;4.20;1.47;;;9.80;99.90;;;;;;5087779;28;20311;-60
2023/03/26 11:30:21;;;;;;;3.27;1.43;;;9.90;99.90;;;;;;5059523;28;20331;-60
2023/03/26 11:32:53;;;;;;;3.50;1.90;;;9.90;99.90;;;;;;5079398;28;20214;-60
2023/03/26 11:35:26;;;;;;;3.80;2.03;;;9.90;99.90;;;;;;5076653;28;20585;-61
2023/03/26 11:38:26;;;;;;;4.00;1.80;;;10.00;99.90;;;;;;5093172;28;20201;-60
2023/03/26 11:40:55;;;;;;;2.97;1.90;;;10.00;99.90;;;;;;5086740;27;20246;-60
2023/03/26 11:43:31;;;;;;;2.47;1.80;;;10.10;99.90;;;;;;5091135;27;20214;-60
2023/03/26 11:46:00;;;;;;;4.83;2.00;;;10.10;99.90;;;;;;5092424;27;20280;-61
2023/03/26 11:48:41;;;;;;;2.90;2.20;;;10.30;99.90;;;;;;5063120;28;20197;-64
2023/03/26 11:51:17;;;;;;;4.03;2.30;;;10.10;99.90;;;;;;5090741;27;20260;-63
2023/03/26 11:53:47;;;;;;;2.67;2.43;;;10.10;99.90;;;;;;5076247;28;20288;-64
2023/03/26 11:56:36;;;;;;;3.97;2.10;;;10.10;99.90;;;;;;5094824;27;20276;-64
2023/03/26 11:59:49;;;;;;;4.83;2.23;;;10.10;99.90;;;;;;5096509;28;20271;-63
2023/03/26 12:02:44;;;;;;;2.90;1.70;;;10.00;99.90;;;;;;5013575;28;20232;-63
2023/03/26 12:05:19;;;;;;;2.13;1.50;;;9.80;99.90;;;;;;5003273;28;20280;-64
2023/03/26 12:07:54;;;;;;;2.40;1.43;;;9.80;99.90;;;;;;5003348;28;20209;-65
2023/03/26 12:10:27;;;;;;;4.67;1.50;;;9.90;99.90;;;;;;5006614;28;20361;-64
2023/03/26 12:12:57;;;;;;;2.20;1.50;;;10.00;99.90;;;;;;5001001;28;20198;-64
2023/03/26 12:15:26;;;;;;;3.07;1.23;;;10.00;99.90;;;;;;4997966;28;20607;-64
2023/03/26 12:17:57;;;;;;;1.77;1.40;;;10.00;99.90;;;;;;4991423;28;20227;-64
2023/03/26 12:20:24;;;;;;;3.13;1.03;;;10.20;99.90;;;;;;4994363;28;20280;-64
2023/03/26 12:22:51;;;;;;;3.83;1.30;;;10.20;99.90;;;;;;5006069;28;20259;-64
2023/03/26 12:25:21;;;;;;;2.93;1.53;;;10.20;99.90;;;;;;4995688;28;20348;-67
2023/03/26 12:27:54;;;;;;;3.73;1.37;;;10.50;99.90;;;;;;4999420;28;20228;-64
2023/03/26 12:30:24;;;;;;;3.63;1.57;;;10.30;99.90;;;;;;5005472;28;20335;-61
2023/03/26 12:32:55;;;;;;;3.63;1.60;;;10.30;99.90;;;;;;5005473;28;20625;-61
2023/03/26 12:35:28;;;;;;;1.93;1.30;;;10.20;99.90;;;;;;5010789;28;20620;-61
2023/03/26 12:38:15;;;;;;;6.07;1.43;;;10.30;99.90;;;;;;5090288;28;20213;-61
2023/03/26 12:40:43;;;;;;;3.03;1.60;;;10.30;99.90;;;;;;5089552;27;20202;-60
2023/03/26 12:43:25;;;;;;;3.07;1.90;;;10.30;99.90;;;;;;5096259;27;20297;-60
2023/03/26 12:46:23;;;;;;;4.43;1.97;;;10.30;99.90;;;;;;5091879;27;20236;-61
2023/03/26 12:49:11;;;;;;;6.00;1.90;;;10.00;99.90;;;;;;5090373;27;20292;-63
2023/03/26 12:51:57;;;;;;;5.53;2.33;;;9.90;99.90;;;;;;5089786;28;20233;-61
2023/03/26 12:54:49;;;;;;;4.03;2.10;;;9.80;99.90;;;;;;5090909;27;20232;-60
2023/03/26 12:57:25;;;;;;;5.23;2.10;;;9.90;99.90;;;;;;5092084;27;20217;-61
2023/03/26 13:00:20;;;;;;;3.43;2.27;;;9.90;99.90;;;;;;5075894;28;20292;-61
2023/03/26 13:03:05;;;;;;;4.23;2.20;;;9.80;99.90;;;;;;5091407;27;20266;-60
2023/03/26 13:05:58;;;;;;;6.27;2.63;;;9.70;99.90;;;;;;5073508;27;20206;-61
2023/03/26 13:08:33;;;;;;;5.70;3.50;;;9.60;99.90;;;;;;5090581;27;20244;-61
2023/03/26 13:11:16;;;;;;;3.57;3.00;;;9.60;99.90;;;;;;5092654;28;20207;-60
2023/03/26 13:14:01;;;;;;;6.83;2.60;;;9.60;99.90;;;;;;5088414;27;20244;-62
2023/03/26 13:16:38;;;;;;;5.43;2.63;;;9.40;99.90;;;;;;5091545;27;20226;-60
2023/03/26 13:19:25;;;;;;;3.53;2.60;;;9.30;99.90;;;;;;5090565;27;20225;-61
2023/03/26 13:22:12;;;;;;;5.37;4.03;;;9.40;99.90;;;;;;5088267;27;20255;-61
2023/03/26 13:24:52;;;;;;;11.03;5.03;;;9.50;99.90;;;;;;5065952;28;20223;-60
2023/03/26 13:27:43;;;;;;;8.97;4.80;;;9.40;99.90;;;;;;5093028;27;20262;-61
2023/03/26 13:30:51;;;;;;;12.37;4.70;;;9.30;99.90;;;;;;5091569;27;20719;-65
2023/03/26 13:33:27;;;;;;;16.93;5.13;;;9.40;99.90;;;;;;5048279;28;20211;-61
2023/03/26 13:36:09;;;;;;;10.20;4.10;;;9.30;99.90;;;;;;5026405;28;20286;-60
2023/03/26 13:38:55;;;;;;;12.13;4.50;;;9.20;99.90;;;;;;5040209;28;20204;-61
2023/03/26 13:41:40;;;;;;;9.17;4.23;;;9.10;99.90;;;;;;5039433;28;20660;-60